Time;durP1;ratioP1;P1;durP2;ratioP2;P2;SDS_P1;SDS_P2;PMS_P1;PMS_P2;Temp;Humidity;BMP_temperature;BMP_pressure;BME280_temperature;BME280_humidity;BME280_pressure;Samples;Min_cycle;Max_cycle;Signal;HPM_P1;HPM_P2
2022/01/05 00:01:33;;;;;;;0.88;0.85;;;;;;;4.34;76.92;95179.78;4925190;29;20052;-80
2022/01/05 00:04:03;;;;;;;1.30;1.20;;;;;;;4.37;78.42;95181.19;4923465;29;20056;-81
2022/01/05 00:06:30;;;;;;;0.70;0.60;;;;;;;4.43;78.20;95180.47;4924934;29;20056;-82
2022/01/05 00:08:58;;;;;;;1.58;1.20;;;;;;;4.46;77.78;95189.66;4925662;29;20060;-81
2022/01/05 00:11:25;;;;;;;4.28;1.58;;;;;;;4.49;77.77;95178.97;4926381;29;20052;-80
2022/01/05 00:13:55;;;;;;;3.35;1.85;;;;;;;4.51;77.82;95180.41;4940917;29;20052;-78
2022/01/05 00:16:23;;;;;;;2.13;1.70;;;;;;;4.56;78.12;95179.88;4940948;29;20052;-79
2022/01/05 00:18:50;;;;;;;0.90;0.82;;;;;;;4.68;79.42;95175.03;4938708;29;20135;-84
2022/01/05 00:21:19;;;;;;;1.58;1.10;;;;;;;4.77;79.87;95183.47;4926896;29;20052;-82
2022/01/05 00:23:47;;;;;;;0.70;0.70;;;;;;;4.87;80.24;95174.47;4926090;29;20439;-85
2022/01/05 00:26:14;;;;;;;0.90;0.40;;;;;;;4.94;79.30;95177.97;4927190;29;20060;-84
2022/01/05 00:28:43;;;;;;;0.93;0.40;;;;;;;4.98;78.45;95178.38;4931495;29;20039;-81
2022/01/05 00:31:10;;;;;;;0.75;0.20;;;;;;;5.05;77.60;95188.78;4940675;29;20032;-80
2022/01/05 00:33:38;;;;;;;0.32;0.32;;;;;;;5.11;77.80;95186.28;4937286;29;20052;-83
2022/01/05 00:36:06;;;;;;;0.50;0.50;;;;;;;5.18;78.85;95176.00;4927630;29;20052;-80
2022/01/05 00:38:35;;;;;;;0.52;0.50;;;;;;;5.27;80.36;95174.94;4927253;29;20056;-83
2022/01/05 00:41:04;;;;;;;0.63;0.50;;;;;;;5.35;78.63;95174.00;4926285;29;20059;-81
2022/01/05 00:43:32;;;;;;;0.43;0.40;;;;;;;5.35;77.48;95167.03;4926282;29;20103;-80
2022/01/05 00:45:59;;;;;;;0.40;0.40;;;;;;;5.35;77.04;95167.03;4926960;29;20481;-81
2022/01/05 00:48:29;;;;;;;0.43;0.43;;;;;;;5.31;77.05;95168.41;4926876;29;20044;-83
2022/01/05 00:51:00;;;;;;;0.65;0.57;;;;;;;5.32;78.27;95159.66;4926072;29;20055;-83
2022/01/05 00:53:28;;;;;;;0.30;0.30;;;;;;;5.34;77.92;95165.44;4926626;29;20048;-81
2022/01/05 00:55:57;;;;;;;0.40;0.40;;;;;;;5.39;79.06;95171.84;4926991;29;20048;-81
2022/01/05 00:58:24;;;;;;;1.77;0.70;;;;;;;5.42;78.02;95161.13;4926126;29;20052;-79
2022/01/05 01:00:52;;;;;;;1.23;0.70;;;;;;;5.37;77.16;95161.69;4925064;29;20071;-84
2022/01/05 01:03:20;;;;;;;1.20;1.10;;;;;;;5.39;78.65;95156.34;4925719;29;20058;-80
2022/01/05 01:05:47;;;;;;;1.30;1.20;;;;;;;5.41;77.84;95159.53;4926603;29;20052;-79
2022/01/05 01:08:15;;;;;;;2.33;1.33;;;;;;;5.39;78.50;95154.53;4926749;29;20052;-80
2022/01/05 01:10:42;;;;;;;1.30;1.20;;;;;;;5.37;77.37;95139.19;4926938;29;20063;-81
2022/01/05 01:13:14;;;;;;;1.30;1.20;;;;;;;5.28;76.51;95134.34;4926450;29;20051;-82
2022/01/05 01:15:42;;;;;;;2.20;1.60;;;;;;;5.21;78.17;95136.88;4926252;29;20404;-82
2022/01/05 01:18:09;;;;;;;1.30;1.15;;;;;;;5.17;77.43;95138.22;4927208;29;20107;-81
2022/01/05 01:20:37;;;;;;;1.67;1.58;;;;;;;5.13;77.33;95137.78;4926428;29;20056;-81
2022/01/05 01:23:05;;;;;;;1.30;1.20;;;;;;;5.19;77.74;95140.63;4926323;29;20055;-82
2022/01/05 01:25:32;;;;;;;2.83;1.20;;;;;;;5.23;77.16;95137.50;4927109;29;20514;-85
2022/01/05 01:28:00;;;;;;;1.38;1.27;;;;;;;5.25;77.75;95150.25;4926154;29;20067;-81
2022/01/05 01:30:31;;;;;;;1.50;1.40;;;;;;;5.29;79.92;95152.28;4927959;29;20044;-82
2022/01/05 01:32:59;;;;;;;1.20;1.08;;;;;;;5.33;79.08;95144.94;4929391;29;20155;-83
2022/01/05 01:35:27;;;;;;;0.80;0.77;;;;;;;5.33;78.47;95143.13;4928253;29;20438;-82
2022/01/05 01:37:56;;;;;;;0.73;0.73;;;;;;;5.36;77.36;95144.59;4928074;29;20055;-82
2022/01/05 01:40:23;;;;;;;1.08;0.90;;;;;;;5.35;76.88;95135.22;4926305;29;20450;-83
2022/01/05 01:42:51;;;;;;;1.40;1.20;;;;;;;5.35;77.40;95130.81;4926885;29;20063;-82
2022/01/05 01:45:19;;;;;;;1.58;1.42;;;;;;;5.37;78.11;95139.19;4927732;29;20048;-85
2022/01/05 01:47:48;;;;;;;3.22;2.05;;;;;;;5.36;77.95;95136.81;4926690;29;20048;-83
2022/01/05 01:50:16;;;;;;;1.63;1.40;;;;;;;5.28;77.41;95135.16;4954844;23;20054;-78
2022/01/05 01:52:43;;;;;;;2.42;2.22;;;;;;;5.20;77.42;95149.97;4953925;28;20058;-78
2022/01/05 01:55:12;;;;;;;2.88;2.13;;;;;;;5.20;79.13;95147.38;4954303;29;20058;-78
2022/01/05 01:57:43;;;;;;;1.63;1.48;;;;;;;5.19;77.59;95150.97;4953902;28;20066;-78
2022/01/05 02:00:12;;;;;;;2.40;1.80;;;;;;;5.18;79.04;95168.25;4947222;29;20067;-78
2022/01/05 02:02:40;;;;;;;1.30;1.20;;;;;;;5.22;79.68;95159.16;4934835;29;20059;-79
2022/01/05 02:05:09;;;;;;;1.40;1.30;;;;;;;5.25;79.81;95170.94;4935451;29;20104;-79
2022/01/05 02:07:37;;;;;;;1.10;1.00;;;;;;;5.26;78.73;95168.13;4935182;29;20051;-79
2022/01/05 02:10:06;;;;;;;1.35;1.00;;;;;;;5.29;78.83;95148.88;4935399;29;20051;-79
2022/01/05 02:12:33;;;;;;;1.33;1.15;;;;;;;5.35;79.68;95156.69;4935277;29;20051;-78
2022/01/05 02:15:01;;;;;;;0.98;0.98;;;;;;;5.37;79.96;95152.13;4935560;29;20052;-78
2022/01/05 02:17:42;;;;;;;1.10;1.00;;;;;;;5.45;80.32;95145.25;4935004;29;20052;-78
2022/01/05 02:20:20;;;;;;;0.90;0.90;;;;;;;5.45;77.99;95138.28;4935325;29;20075;-78
2022/01/05 02:22:49;;;;;;;0.85;0.80;;;;;;;5.42;79.08;95155.97;4935132;29;20067;-78
2022/01/05 02:25:17;;;;;;;0.75;0.75;;;;;;;5.35;77.74;95158.47;4935001;29;20059;-78
2022/01/05 02:27:47;;;;;;;1.48;0.80;;;;;;;5.26;77.21;95157.78;4935078;29;20051;-79
2022/01/05 02:30:20;;;;;;;1.00;0.70;;;;;;;5.22;76.73;95161.72;4935088;29;20056;-78
2022/01/05 02:32:48;;;;;;;0.75;0.75;;;;;;;5.22;77.70;95161.72;4935149;29;20059;-78
2022/01/05 02:35:16;;;;;;;0.60;0.60;;;;;;;5.19;77.41;95156.16;4935018;29;20055;-78
2022/01/05 02:37:45;;;;;;;0.60;0.57;;;;;;;5.15;77.76;95153.91;4934992;29;20059;-78
2022/01/05 02:40:16;;;;;;;0.65;0.60;;;;;;;5.15;76.94;95161.66;4935051;29;20048;-78
2022/01/05 02:42:44;;;;;;;0.40;0.40;;;;;;;5.18;77.24;95152.75;4934877;29;20052;-79
2022/01/05 02:45:13;;;;;;;0.82;0.80;;;;;;;5.21;77.53;95147.22;4934617;29;20052;-78
2022/01/05 02:47:41;;;;;;;0.30;0.30;;;;;;;5.24;77.52;95157.19;4937949;29;20119;-78
2022/01/05 02:50:11;;;;;;;0.85;0.30;;;;;;;5.24;77.88;95157.19;4938205;29;20090;-79
2022/01/05 02:52:39;;;;;;;0.63;0.60;;;;;;;5.29;78.75;95157.44;4938414;29;20055;-79
2022/01/05 02:55:08;;;;;;;0.50;0.30;;;;;;;5.37;79.92;95165.06;4938058;29;20506;-78
2022/01/05 02:57:37;;;;;;;0.85;0.32;;;;;;;5.41;78.09;95169.88;4937885;29;20058;-78
2022/01/05 03:00:07;;;;;;;0.30;0.30;;;;;;;5.41;77.77;95172.47;4938361;29;20048;-78
2022/01/05 03:02:34;;;;;;;0.52;0.50;;;;;;;5.49;79.29;95167.97;4938150;29;20058;-78
2022/01/05 03:05:03;;;;;;;0.20;0.20;;;;;;;5.56;78.02;95173.22;4938191;29;20048;-79
2022/01/05 03:07:31;;;;;;;0.25;0.25;;;;;;;5.61;77.43;95180.41;4937881;29;20059;-78
2022/01/05 03:09:59;;;;;;;0.20;0.20;;;;;;;5.69;78.78;95183.66;4937821;29;20510;-78
2022/01/05 03:12:26;;;;;;;0.25;0.25;;;;;;;5.71;77.21;95168.75;4938008;29;20052;-78
2022/01/05 03:14:55;;;;;;;0.30;0.30;;;;;;;5.64;76.25;95170.50;4937762;29;20056;-78
2022/01/05 03:17:23;;;;;;;0.20;0.20;;;;;;;5.59;75.86;95172.81;4937438;29;20537;-78
2022/01/05 03:19:50;;;;;;;0.85;0.30;;;;;;;5.54;77.27;95175.97;4937784;29;20510;-78
2022/01/05 03:22:18;;;;;;;0.30;0.30;;;;;;;5.56;78.38;95181.75;4937660;29;20502;-78
2022/01/05 03:24:45;;;;;;;0.25;0.10;;;;;;;5.63;78.88;95174.06;4937732;29;20059;-79
2022/01/05 03:27:13;;;;;;;0.47;0.22;;;;;;;5.67;77.59;95174.50;4937494;29;20470;-79
2022/01/05 03:29:40;;;;;;;0.85;0.20;;;;;;;5.65;77.15;95176.47;4938114;29;20395;-78
2022/01/05 03:32:10;;;;;;;0.52;0.30;;;;;;;5.69;78.08;95175.91;4938282;29;20411;-78
2022/01/05 03:34:38;;;;;;;0.20;0.20;;;;;;;5.75;77.94;95179.53;4938072;29;20055;-78
2022/01/05 03:37:06;;;;;;;0.20;0.20;;;;;;;5.74;76.87;95186.50;4937185;29;20055;-79
2022/01/05 03:39:34;;;;;;;0.20;0.20;;;;;;;5.70;76.77;95179.28;4937590;29;20056;-78
2022/01/05 03:42:03;;;;;;;0.40;0.40;;;;;;;5.68;77.69;95174.28;4937454;29;20052;-79
2022/01/05 03:44:30;;;;;;;0.10;0.08;;;;;;;5.67;76.92;95172.72;4937659;29;20051;-79
2022/01/05 03:46:58;;;;;;;0.15;0.10;;;;;;;5.70;77.33;95179.28;4937127;29;20052;-78
2022/01/05 03:49:27;;;;;;;1.48;0.50;;;;;;;5.72;78.43;95172.94;4936886;29;20553;-79
2022/01/05 03:51:54;;;;;;;1.48;0.10;;;;;;;5.75;77.86;95177.75;4937191;29;20063;-77
2022/01/05 03:54:22;;;;;;;0.45;0.30;;;;;;;5.80;78.53;95169.44;4938510;29;20055;-78
2022/01/05 03:56:49;;;;;;;0.20;0.20;;;;;;;5.88;79.01;95165.91;4936673;29;20056;-79
2022/01/05 03:59:17;;;;;;;0.30;0.30;;;;;;;5.91;78.42;95171.50;4937265;29;20065;-78
2022/01/05 04:01:44;;;;;;;0.30;0.20;;;;;;;5.96;78.82;95179.53;4937115;29;20054;-78
2022/01/05 04:04:12;;;;;;;0.80;0.20;;;;;;;6.00;79.21;95185.13;4936949;29;20134;-78
2022/01/05 04:06:41;;;;;;;0.20;0.20;;;;;;;6.01;76.91;95186.72;4936357;29;20521;-79
2022/01/05 04:09:10;;;;;;;0.30;0.20;;;;;;;6.02;77.25;95184.97;4936584;29;20052;-78
2022/01/05 04:11:37;;;;;;;0.20;0.20;;;;;;;5.98;76.56;95182.72;4936760;29;20059;-78
2022/01/05 04:14:05;;;;;;;0.47;0.10;;;;;;;5.98;76.95;95180.13;4936807;29;20047;-78
2022/01/05 04:16:33;;;;;;;0.10;0.10;;;;;;;5.98;76.10;95176.75;4936215;29;20051;-78
2022/01/05 04:19:00;;;;;;;0.10;0.10;;;;;;;5.98;75.70;95176.75;4936616;29;20189;-78
2022/01/05 04:21:28;;;;;;;0.13;0.13;;;;;;;5.95;75.14;95177.16;4937018;29;20059;-79
2022/01/05 04:23:57;;;;;;;0.20;0.10;;;;;;;5.90;76.35;95174.28;4937121;29;20063;-79
2022/01/05 04:26:24;;;;;;;0.38;0.10;;;;;;;5.88;76.00;95178.84;4936429;29;20472;-79
2022/01/05 04:28:52;;;;;;;0.28;0.28;;;;;;;5.89;75.91;95177.88;4936379;29;20048;-78
2022/01/05 04:31:19;;;;;;;0.30;0.25;;;;;;;5.89;76.90;95175.28;4936279;29;20110;-78
2022/01/05 04:33:47;;;;;;;0.40;0.17;;;;;;;5.94;78.08;95178.09;4936323;29;20052;-78
2022/01/05 04:36:34;;;;;;;0.10;0.10;;;;;;;5.95;76.54;95177.16;4935645;29;20047;-78
2022/01/05 04:39:03;;;;;;;1.00;0.10;;;;;;;5.94;77.16;95178.09;4936167;29;20055;-78
2022/01/05 04:41:31;;;;;;;0.25;0.25;;;;;;;5.97;76.71;95164.81;4936193;29;20058;-78
2022/01/05 04:43:58;;;;;;;0.82;0.30;;;;;;;5.98;75.69;95159.44;4936257;29;20052;-79
2022/01/05 04:46:26;;;;;;;0.20;0.20;;;;;;;6.00;77.00;95164.44;4935647;29;20056;-78
2022/01/05 04:48:53;;;;;;;0.10;0.10;;;;;;;6.04;77.75;95165.66;4936146;29;20059;-78
2022/01/05 04:51:21;;;;;;;0.10;0.10;;;;;;;6.07;77.75;95170.44;4935665;29;20150;-78
2022/01/05 04:53:48;;;;;;;0.65;0.10;;;;;;;6.10;77.08;95172.69;4936200;29;20070;-78
2022/01/05 04:56:17;;;;;;;0.65;0.20;;;;;;;6.11;77.65;95169.09;4935583;29;20059;-78
2022/01/05 04:58:45;;;;;;;0.45;0.20;;;;;;;6.11;77.00;95169.09;4935932;29;20426;-79
2022/01/05 05:01:12;;;;;;;0.47;0.10;;;;;;;6.13;77.67;95171.50;4935711;29;20059;-78
2022/01/05 05:03:40;;;;;;;1.48;0.40;;;;;;;6.19;77.86;95174.13;4935907;29;20051;-78
2022/01/05 05:06:07;;;;;;;0.10;0.10;;;;;;;6.22;76.50;95166.97;4935881;29;20062;-79
2022/01/05 05:08:35;;;;;;;0.30;0.30;;;;;;;6.21;76.16;95171.34;4935299;29;20047;-79
2022/01/05 05:11:02;;;;;;;0.03;0.03;;;;;;;6.22;76.40;95165.19;4936656;29;20056;-78
2022/01/05 05:13:31;;;;;;;0.13;0.10;;;;;;;6.26;76.37;95178.56;4936195;29;20052;-79
2022/01/05 05:15:59;;;;;;;0.20;0.20;;;;;;;6.28;76.98;95167.00;4936275;29;20059;-79
2022/01/05 05:18:30;;;;;;;0.20;0.10;;;;;;;6.31;76.86;95181.38;4936290;29;20107;-78
2022/01/05 05:20:57;;;;;;;0.43;0.25;;;;;;;6.33;76.46;95175.00;4936259;29;20067;-79
2022/01/05 05:23:25;;;;;;;0.20;0.10;;;;;;;6.34;76.85;95170.63;4935612;29;20111;-78
2022/01/05 05:25:52;;;;;;;0.25;0.10;;;;;;;6.39;76.80;95173.47;4935481;29;20048;-79
2022/01/05 05:28:20;;;;;;;0.10;0.10;;;;;;;6.42;76.75;95173.06;4935220;29;20056;-78
2022/01/05 05:30:49;;;;;;;0.73;0.20;;;;;;;6.45;76.74;95183.06;4935678;29;20055;-78
2022/01/05 05:33:17;;;;;;;0.30;0.20;;;;;;;6.45;76.73;95180.47;4935920;29;20143;-78
2022/01/05 05:35:44;;;;;;;0.60;0.20;;;;;;;6.44;77.18;95194.41;4935836;29;20434;-79
2022/01/05 05:38:14;;;;;;;1.27;0.30;;;;;;;6.42;76.75;95209.31;4935160;29;20047;-78
2022/01/05 05:40:42;;;;;;;0.28;0.20;;;;;;;6.41;77.20;95218.09;4935235;29;20502;-78
2022/01/05 05:43:10;;;;;;;0.10;0.00;;;;;;;6.40;77.14;95219.88;4935447;29;20052;-79
2022/01/05 05:45:38;;;;;;;0.10;0.10;;;;;;;6.41;77.36;95212.91;4935243;29;20047;-78
2022/01/05 05:48:07;;;;;;;0.20;0.10;;;;;;;6.41;76.91;95223.28;4935041;29;20131;-78
2022/01/05 05:50:35;;;;;;;0.52;0.52;;;;;;;6.40;77.33;95229.44;4934961;29;20043;-78
2022/01/05 05:53:03;;;;;;;18.05;9.63;;;;;;;6.38;76.22;95214.09;4935524;29;20054;-78
2022/01/05 05:55:31;;;;;;;41.05;25.30;;;;;;;6.34;76.43;95227.59;4935339;29;20541;-78
2022/01/05 05:57:58;;;;;;;5.30;2.50;;;;;;;6.33;76.54;95226.81;4935169;29;20056;-79
2022/01/05 06:00:26;;;;;;;1.20;0.50;;;;;;;6.28;75.27;95236.13;4935917;29;20062;-79
2022/01/05 06:02:53;;;;;;;0.30;0.10;;;;;;;6.22;76.36;95244.66;4935827;29;20051;-78
2022/01/05 06:05:22;;;;;;;0.10;0.10;;;;;;;6.24;76.62;95245.28;4935427;29;20486;-78
2022/01/05 06:07:50;;;;;;;0.17;0.17;;;;;;;6.23;76.49;95257.41;4934788;29;20067;-78
2022/01/05 06:10:17;;;;;;;1.02;0.20;;;;;;;6.20;76.54;95257.78;4935149;29;20058;-79
2022/01/05 06:12:45;;;;;;;0.10;0.10;;;;;;;6.16;76.14;95267.69;4936076;29;20052;-79
2022/01/05 06:15:13;;;;;;;0.30;0.30;;;;;;;6.14;76.16;95264.53;4938651;29;20063;-78
2022/01/05 06:17:40;;;;;;;0.60;0.60;;;;;;;6.12;75.69;95299.31;4939849;29;20048;-79
2022/01/05 06:20:10;;;;;;;1.13;0.35;;;;;;;6.11;76.44;95305.50;4944714;29;20047;-79
2022/01/05 06:22:40;;;;;;;0.22;0.22;;;;;;;6.06;76.77;95313.84;4943335;29;20047;-78
2022/01/05 06:25:09;;;;;;;0.40;0.30;;;;;;;5.98;76.51;95319.91;4942611;29;20058;-78
2022/01/05 06:27:38;;;;;;;0.10;0.10;;;;;;;5.93;75.91;95324.03;4939565;29;20047;-78
2022/01/05 06:30:08;;;;;;;0.63;0.45;;;;;;;5.89;77.14;95333.94;4939018;29;20378;-77
2022/01/05 06:32:35;;;;;;;0.82;0.38;;;;;;;5.88;77.86;95337.53;4939394;29;20063;-78
2022/01/05 06:35:04;;;;;;;0.57;0.40;;;;;;;5.87;77.43;95341.06;4938810;29;20517;-78
2022/01/05 06:37:31;;;;;;;0.30;0.30;;;;;;;5.85;76.80;95348.22;4933340;29;20051;-78
2022/01/05 06:40:00;;;;;;;0.30;0.30;;;;;;;5.85;76.72;95353.41;4938813;29;20055;-78
2022/01/05 06:42:27;;;;;;;0.40;0.40;;;;;;;5.80;76.88;95366.09;4939007;29;20048;-77
2022/01/05 06:44:55;;;;;;;0.75;0.73;;;;;;;5.77;77.11;95372.44;4938849;29;20533;-77
2022/01/05 06:47:23;;;;;;;0.30;0.30;;;;;;;5.74;76.42;95387.50;4938635;29;20107;-78
2022/01/05 06:49:50;;;;;;;0.40;0.40;;;;;;;5.64;75.81;95392.97;4938964;29;20051;-79
2022/01/05 06:52:18;;;;;;;0.63;0.60;;;;;;;5.59;76.75;95415.97;4939323;29;20055;-79
2022/01/05 06:54:45;;;;;;;1.92;0.90;;;;;;;5.60;77.29;95417.59;4939007;29;20056;-78
2022/01/05 06:57:14;;;;;;;1.20;1.10;;;;;;;5.61;77.44;95437.31;4938638;29;20056;-78
2022/01/05 06:59:42;;;;;;;1.10;1.10;;;;;;;5.50;76.15;95438.56;4938287;29;20498;-76
2022/01/05 07:02:09;;;;;;;1.70;1.60;;;;;;;5.40;76.06;95447.56;4938435;29;20059;-75
2022/01/05 07:04:37;;;;;;;1.65;1.55;;;;;;;5.28;76.42;95455.75;4938193;29;20502;-75
2022/01/05 07:07:06;;;;;;;2.40;1.70;;;;;;;5.24;77.09;95467.41;4929655;29;20239;-76
2022/01/05 07:09:33;;;;;;;1.60;1.50;;;;;;;5.21;75.92;95480.72;4935621;29;20047;-75
2022/01/05 07:12:01;;;;;;;1.90;1.80;;;;;;;5.17;76.76;95482.03;4934377;29;20054;-75
2022/01/05 07:14:30;;;;;;;1.85;1.75;;;;;;;5.15;76.93;95489.97;4937286;29;20077;-75
2022/01/05 07:16:58;;;;;;;2.17;2.03;;;;;;;5.07;76.90;95484.06;4936792;29;20055;-76
2022/01/05 07:19:25;;;;;;;1.70;1.60;;;;;;;5.04;76.98;95489.59;4937759;29;20051;-75
2022/01/05 07:21:53;;;;;;;1.27;1.27;;;;;;;4.96;76.49;95503.38;4937836;29;20051;-75
2022/01/05 07:24:20;;;;;;;1.90;1.70;;;;;;;4.91;76.29;95516.00;4937821;29;20051;-75
2022/01/05 07:26:49;;;;;;;1.42;0.98;;;;;;;4.75;75.07;95516.94;4937231;29;20074;-75
2022/01/05 07:29:18;;;;;;;3.13;1.23;;;;;;;4.60;74.70;95523.81;4937538;29;20055;-75
2022/01/05 07:31:47;;;;;;;2.25;1.60;;;;;;;4.49;74.84;95536.13;4936976;29;20051;-75
2022/01/05 07:34:15;;;;;;;3.58;1.90;;;;;;;4.49;76.49;95549.03;4937508;29;20062;-76
2022/01/05 07:36:43;;;;;;;4.10;1.70;;;;;;;4.50;76.89;95561.00;4937433;29;20441;-76
2022/01/05 07:39:10;;;;;;;3.50;1.50;;;;;;;4.48;76.35;95562.94;4937972;29;20052;-76
2022/01/05 07:41:39;;;;;;;3.00;1.98;;;;;;;4.49;77.32;95577.44;4938831;29;20055;-75
2022/01/05 07:44:07;;;;;;;3.88;1.40;;;;;;;4.50;75.98;95576.50;4938629;29;20514;-75
2022/01/05 07:46:35;;;;;;;4.00;1.88;;;;;;;4.42;76.01;95579.09;4938936;29;20054;-75
2022/01/05 07:49:06;;;;;;;2.13;1.65;;;;;;;4.42;76.45;95578.31;4938906;29;20071;-76
2022/01/05 07:51:34;;;;;;;4.10;1.90;;;;;;;4.39;76.65;95584.59;4938313;29;20047;-75
2022/01/05 07:54:02;;;;;;;4.43;1.80;;;;;;;4.40;76.76;95585.41;4937710;29;20055;-75
2022/01/05 07:56:30;;;;;;;5.53;1.80;;;;;;;4.36;76.00;95590.09;4937338;29;20047;-75
2022/01/05 07:58:58;;;;;;;2.80;1.73;;;;;;;4.34;75.86;95597.22;4937827;29;20055;-75
2022/01/05 08:01:25;;;;;;;3.70;1.90;;;;;;;4.31;76.13;95592.38;4938161;29;20047;-75
2022/01/05 08:03:53;;;;;;;3.08;1.90;;;;;;;4.32;75.73;95592.19;4937254;29;20199;-75
2022/01/05 08:06:23;;;;;;;2.90;1.90;;;;;;;4.27;74.70;95596.28;4937578;29;20062;-75
2022/01/05 08:08:51;;;;;;;3.42;1.80;;;;;;;4.19;73.77;95602.25;4938000;29;20063;-75
2022/01/05 08:11:19;;;;;;;3.90;2.15;;;;;;;4.13;75.82;95611.47;4938372;29;20552;-76
2022/01/05 08:13:47;;;;;;;3.53;2.40;;;;;;;4.16;76.71;95599.22;4937525;29;20067;-75
2022/01/05 08:16:14;;;;;;;3.45;1.80;;;;;;;4.19;76.43;95614.38;4937365;29;20051;-75
2022/01/05 08:18:42;;;;;;;3.22;1.92;;;;;;;4.20;76.69;95616.78;4937550;29;20060;-75
2022/01/05 08:21:09;;;;;;;2.10;1.52;;;;;;;4.21;76.04;95617.59;4937487;29;20063;-75
2022/01/05 08:23:38;;;;;;;2.05;1.88;;;;;;;4.20;76.25;95616.78;4937803;29;20052;-75
2022/01/05 08:26:06;;;;;;;4.25;2.13;;;;;;;4.16;76.73;95617.28;4937519;29;20052;-76
2022/01/05 08:28:35;;;;;;;3.25;1.80;;;;;;;4.13;76.87;95626.97;4939271;29;20056;-77
2022/01/05 08:31:03;;;;;;;3.30;1.65;;;;;;;4.12;76.80;95630.50;4938810;29;20055;-75
2022/01/05 08:33:31;;;;;;;4.35;1.95;;;;;;;4.15;77.13;95629.38;4936639;29;20051;-75
2022/01/05 08:35:58;;;;;;;3.30;1.90;;;;;;;4.17;77.16;95632.59;4936962;29;20429;-75
2022/01/05 08:38:26;;;;;;;2.95;1.92;;;;;;;4.16;76.84;95630.19;4936619;29;20064;-74
2022/01/05 08:40:55;;;;;;;3.15;2.03;;;;;;;4.15;76.93;95634.53;4936246;29;20059;-74
2022/01/05 08:43:23;;;;;;;8.23;2.30;;;;;;;4.21;77.63;95640.81;4935271;29;20483;-75
2022/01/05 08:45:50;;;;;;;6.70;2.95;;;;;;;4.27;77.93;95647.91;4935329;29;20130;-75
2022/01/05 08:48:18;;;;;;;2.90;2.15;;;;;;;4.21;76.10;95646.78;4936044;29;20459;-75
2022/01/05 08:50:46;;;;;;;1.98;1.88;;;;;;;4.07;75.03;95652.63;4935951;29;20048;-76
2022/01/05 08:53:13;;;;;;;2.30;2.00;;;;;;;3.96;76.46;95648.63;4935652;29;20055;-76
2022/01/05 08:55:43;;;;;;;4.38;2.67;;;;;;;3.90;76.75;95662.16;4936044;29;20058;-76
2022/01/05 08:58:13;;;;;;;5.05;2.95;;;;;;;3.87;77.27;95668.47;4935666;29;20052;-75
2022/01/05 09:00:41;;;;;;;4.32;2.50;;;;;;;3.80;77.08;95672.63;4935639;29;20052;-75
2022/01/05 09:03:09;;;;;;;4.60;3.65;;;;;;;3.69;77.28;95676.34;4936075;29;20062;-76
2022/01/05 09:05:37;;;;;;;4.82;2.30;;;;;;;3.56;77.11;95686.34;4935977;29;20056;-76
2022/01/05 09:08:05;;;;;;;3.78;3.03;;;;;;;3.54;77.71;95697.78;4935276;29;20077;-76
2022/01/05 09:10:32;;;;;;;8.52;6.25;;;;;;;3.54;77.90;95696.00;4934880;29;20059;-75
2022/01/05 09:13:00;;;;;;;14.98;10.75;;;;;;;3.52;76.92;95695.38;4929999;29;20059;-76
2022/01/05 09:15:32;;;;;;;11.63;8.25;;;;;;;3.49;76.63;95706.00;4931467;29;20470;-76
2022/01/05 09:18:00;;;;;;;5.97;3.30;;;;;;;3.41;77.26;95705.97;4935003;29;20047;-76
2022/01/05 09:20:27;;;;;;;3.72;2.63;;;;;;;3.41;78.45;95718.88;4934445;29;20052;-76
2022/01/05 09:22:56;;;;;;;2.55;1.75;;;;;;;3.36;77.11;95732.25;4935557;29;20134;-77
2022/01/05 09:25:24;;;;;;;3.90;2.03;;;;;;;3.22;76.70;95725.13;4935905;29;20059;-76
2022/01/05 09:27:52;;;;;;;4.10;1.60;;;;;;;3.22;78.01;95731.09;4935537;29;20059;-77
2022/01/05 09:30:23;;;;;;;4.90;1.83;;;;;;;3.25;77.47;95730.75;4935821;29;20047;-77
2022/01/05 09:32:52;;;;;;;1.95;1.50;;;;;;;3.26;77.86;95745.28;4936049;29;20048;-76
2022/01/05 09:35:22;;;;;;;1.52;1.23;;;;;;;3.28;76.67;95755.44;4935522;29;20048;-76
2022/01/05 09:38:05;;;;;;;2.35;2.03;;;;;;;3.34;76.31;95754.00;4935095;29;20051;-76
2022/01/05 09:43:18;;;;;;;7.57;1.80;;;;;;;3.35;75.07;95765.94;4935547;29;20430;-75
2022/01/05 09:46:05;;;;;;;5.95;1.73;;;;;;;3.32;75.63;95777.34;4935240;29;20134;-75
2022/01/05 09:48:59;;;;;;;4.43;1.70;;;;;;;3.28;74.82;95783.78;4935737;29;20126;-75
2022/01/05 09:51:31;;;;;;;3.15;1.95;;;;;;;3.25;75.31;95777.16;4935511;29;20100;-76
2022/01/05 09:54:02;;;;;;;4.00;1.73;;;;;;;3.23;74.15;95791.16;4935562;29;20052;-75
2022/01/05 09:56:50;;;;;;;3.95;1.90;;;;;;;3.15;73.89;95791.97;4942497;29;20286;-76
2022/01/05 09:59:19;;;;;;;2.80;1.88;;;;;;;3.18;74.96;95788.25;4942812;29;20055;-76
2022/01/05 10:01:46;;;;;;;2.50;1.50;;;;;;;3.17;72.82;95795.19;4944200;29;20059;-78
2022/01/05 10:04:16;;;;;;;3.05;1.73;;;;;;;3.15;74.22;95789.38;4945074;29;20059;-76
2022/01/05 10:06:44;;;;;;;4.63;1.67;;;;;;;3.20;74.29;95800.03;4943107;29;20075;-76
2022/01/05 10:09:11;;;;;;;5.57;2.17;;;;;;;3.19;73.81;95803.56;4942679;29;20509;-76
2022/01/05 10:11:39;;;;;;;3.83;1.42;;;;;;;3.22;73.83;95812.75;4942201;29;20142;-77
2022/01/05 10:14:09;;;;;;;4.00;1.52;;;;;;;3.17;72.50;95802.94;4942399;29;20264;-75
2022/01/05 10:16:36;;;;;;;4.32;1.73;;;;;;;3.14;72.82;95817.88;4942137;29;20051;-76
2022/01/05 10:19:05;;;;;;;2.35;1.50;;;;;;;3.08;71.48;95817.53;4942583;29;20082;-78
2022/01/05 10:21:36;;;;;;;4.07;1.90;;;;;;;2.91;72.77;95813.28;4942132;29;20059;-77
2022/01/05 10:24:04;;;;;;;3.33;1.70;;;;;;;2.92;73.77;95811.50;4941781;29;20059;-76
2022/01/05 10:26:34;;;;;;;3.70;1.58;;;;;;;2.85;72.46;95822.41;4940870;29;20058;-76
2022/01/05 10:29:04;;;;;;;3.63;1.70;;;;;;;2.78;72.76;95818.84;4941964;29;20059;-76
2022/01/05 10:31:34;;;;;;;4.20;1.70;;;;;;;2.77;72.96;95819.78;4942557;29;20058;-76
2022/01/05 10:34:14;;;;;;;4.40;2.40;;;;;;;2.79;73.69;95822.22;4942261;29;20106;-76
2022/01/05 10:36:48;;;;;;;5.93;1.80;;;;;;;2.73;73.37;95820.22;4940753;29;20110;-76
2022/01/05 10:39:20;;;;;;;5.18;2.47;;;;;;;2.70;74.56;95823.13;4941293;29;20055;-77
2022/01/05 10:41:48;;;;;;;5.47;2.10;;;;;;;2.68;74.16;95820.69;4940978;29;20138;-75
2022/01/05 10:44:20;;;;;;;6.75;2.17;;;;;;;2.67;74.52;95826.81;4941187;29;20421;-76
2022/01/05 10:46:50;;;;;;;3.28;2.00;;;;;;;2.70;73.61;95818.78;4940779;29;20462;-77
2022/01/05 10:49:30;;;;;;;5.60;3.13;;;;;;;2.72;76.00;95822.00;4941025;29;20532;-77
2022/01/05 10:52:00;;;;;;;5.95;2.20;;;;;;;2.71;73.23;95830.69;4941077;29;20066;-76
2022/01/05 10:54:30;;;;;;;8.27;2.67;;;;;;;2.62;74.12;95822.13;4940468;29;20062;-76
2022/01/05 10:57:08;;;;;;;5.97;1.98;;;;;;;2.53;69.91;95822.22;4940633;29;20071;-75
2022/01/05 10:59:37;;;;;;;3.35;1.88;;;;;;;2.52;71.89;95830.91;4940958;29;20064;-76
2022/01/05 11:02:27;;;;;;;8.52;1.92;;;;;;;2.54;70.69;95829.00;4941302;29;20047;-76
2022/01/05 11:04:58;;;;;;;5.80;1.80;;;;;;;2.57;70.94;95828.66;4940842;29;20051;-76
2022/01/05 11:07:29;;;;;;;7.43;1.88;;;;;;;2.55;71.62;95843.47;4937780;29;20514;-75
2022/01/05 11:09:58;;;;;;;4.40;1.50;;;;;;;2.62;71.26;95839.31;4937735;29;20044;-76
2022/01/05 11:12:33;;;;;;;4.28;1.70;;;;;;;2.76;72.66;95832.81;4938351;29;20071;-77
2022/01/05 11:15:21;;;;;;;6.25;1.95;;;;;;;2.90;71.09;95839.97;4938187;29;20048;-76
2022/01/05 11:18:15;;;;;;;8.35;1.88;;;;;;;3.00;72.72;95839.88;4941811;29;20051;-77
2022/01/05 11:20:47;;;;;;;3.53;1.70;;;;;;;3.26;70.56;95835.50;4937250;29;20058;-76
2022/01/05 11:23:17;;;;;;;4.75;1.42;;;;;;;3.40;68.64;95846.19;4938685;29;20063;-76
2022/01/05 11:25:46;;;;;;;4.90;1.65;;;;;;;3.45;70.57;95849.09;4938928;29;20052;-74
2022/01/05 11:28:14;;;;;;;6.63;2.67;;;;;;;3.52;70.93;95855.25;4937740;29;20052;-74
2022/01/05 11:30:43;;;;;;;7.80;1.70;;;;;;;3.50;70.74;95864.91;4936886;29;20048;-73
2022/01/05 11:33:11;;;;;;;4.63;1.33;;;;;;;3.96;68.74;95865.38;4951268;29;20067;-77
2022/01/05 11:35:40;;;;;;;6.03;1.75;;;;;;;4.46;65.09;95871.38;4939292;29;20062;-75
2022/01/05 11:38:08;;;;;;;6.07;1.80;;;;;;;5.25;63.67;95874.19;4945273;29;20139;-75
2022/01/05 11:40:39;;;;;;;3.97;1.50;;;;;;;5.44;59.70;95868.59;4953236;29;20043;-75
2022/01/05 11:43:09;;;;;;;6.05;1.65;;;;;;;4.78;61.12;95875.72;4953452;29;20058;-74
2022/01/05 11:45:45;;;;;;;6.32;2.35;;;;;;;4.38;62.79;95882.50;4952408;29;20056;-74
2022/01/05 11:48:22;;;;;;;4.18;1.65;;;;;;;4.18;64.80;95873.47;4953426;29;20071;-74
2022/01/05 11:50:51;;;;;;;5.43;2.00;;;;;;;4.03;66.88;95886.19;4978265;28;20047;-74
2022/01/05 11:53:40;;;;;;;5.38;1.63;;;;;;;4.02;68.85;95876.81;4978341;29;20051;-76